FW4827 Weather Reports


time (UTC)temp
F
wind
direction
speed
knots
gust
knots
rain 1hr
in
rain 24hr
in
rain mn
in
humidity
%
barometer
mb
20220811234839 49 202 1.7 3.5 0.00 0.00 0.00 74 1022.9
20220811234339 49 216 1.7 3.5 0.00 0.00 0.00 73 1023.0
20220811233818 48 218 0.9 3.5 0.00 0.00 0.00 73 1023.0
20220811233319 48 206 0.9 5.2 0.00 0.00 0.00 73 1023.0
20220811232757 49 210 2.6 6.1 0.00 0.00 0.00 73 1023.1
20220811232258 49 223 2.6 6.1 0.00 0.00 0.00 74 1023.1
20220811231818 49 210 3.5 7.0 0.00 0.00 0.00 74 1023.1
20220811231339 49 164 2.6 7.0 0.00 0.00 0.00 75 1023.3
20220811230758 49 139 1.7 5.2 0.00 0.00 0.00 75 1023.4
20220811230339 49 128 1.7 4.3 0.00 0.00 0.00 76 1023.4
20220811225839 49 129 1.7 4.3 0.00 0.00 0.00 77 1023.4
20220811225258 49 130 0.0 3.5 0.00 0.00 0.00 78 1023.4
20220811224818 49 114 0.0 3.5 0.00 0.00 0.00 79 1023.4
20220811224257 49 126 0.9 3.5 0.00 0.00 0.00 79 1023.5
20220811223758 48 109 0.9 4.3 0.00 0.00 0.00 81 1023.6
20220811223257 48 89 0.9 4.3 0.00 0.00 0.00 81 1023.6
20220811222818 48 83 0.9 4.3 0.00 0.00 0.00 82 1023.7
20220811222319 49 62 0.0 1.7 0.00 0.00 0.00 84 1023.5
20220811221757 48 64 0.0 1.7 0.00 0.00 0.00 86 1023.8
20220811221319 48 42 0.0 1.7 0.00 0.00 0.00 87 1023.8
20220811220840 47 47 0.0 2.6 0.00 0.00 0.00 87 1023.9
20220811220318 47 48 0.0 2.6 0.00 0.00 0.00 88 1023.9
20220811215758 46 71 0.0 2.6 0.00 0.00 0.00 88 1024.0
20220811215318 46 77 0.9 2.6 0.00 0.00 0.00 88 1024.1
20220811214840 46 64 0.0 2.6 0.00 0.00 0.00 89 1024.0
20220811214319 46 47 0.0 1.7 0.00 0.00 0.00 90 1024.1
20220811213839 45 59 0.0 2.6 0.00 0.00 0.00 90 1024.2
20220811213258 45 52 0.9 3.5 0.00 0.00 0.00 91 1024.2
20220811212818 44 51 0.9 3.5 0.00 0.00 0.00 91 1024.1
20220811212339 44 47 0.0 1.7 0.00 0.00 0.00 91 1024.1
20220811211840 43 39 0.0 1.7 0.00 0.00 0.00 92 1024.2
20220811211318 43 42 0.0 1.7 0.00 0.00 0.00 91 1024.2
20220811210839 42 36 0.0 0.9 0.00 0.00 0.00 91 1024.3
20220811210340 41 0 0.0 0.0 0.00 0.00 0.00 92 1024.3
20220811205818 41 30 0.0 1.7 0.00 0.00 0.00 91 1024.3
20220811205319 40 25 0.0 1.7 0.00 0.00 0.00 91 1024.2
20220811204818 40 25 0.0 1.7 0.00 0.00 0.00 91 1024.2
20220811204318 39 30 0.0 0.9 0.00 0.00 0.00 92 1024.4
20220811203818 38 22 0.0 0.9 0.00 0.00 0.00 92 1024.2
20220811203318 38 0 0.0 0.0 0.00 0.00 0.00 91 1024.2
20220811202758 37 0 0.0 0.0 0.00 0.00 0.00 91 1024.4
20220811202339 36 0 0.0 0.0 0.00 0.00 0.00 91 1024.2
20220811201757 36 0 0.0 0.0 0.00 0.00 0.00 91 1024.2
20220811201318 35 0 0.0 0.0 0.00 0.00 0.00 91 1024.2
20220811200818 34 0 0.0 0.0 0.00 0.00 0.00 91 1024.3
20220811200258 33 0 0.0 0.0 0.00 0.00 0.00 91 1024.3
20220811195757 32 0 0.0 0.0 0.00 0.00 0.00 91 1024.2
20220811195339 32 0 0.0 0.0 0.00 0.00 0.00 91 1024.2
20220811194757 31 0 0.0 0.0 0.00 0.00 0.00 91 1024.1
20220811194257 31 0 0.0 0.0 0.00 0.00 0.00 91 1024.2
20220811193819 31 0 0.0 0.0 0.00 0.00 0.00 91 1024.2
20220811193339 31 0 0.0 0.0 0.00 0.00 0.00 91 1024.2
20220811192818 31 0 0.0 0.0 0.00 0.00 0.00 91 1024.1
20220811192318 31 0 0.0 0.0 0.00 0.00 0.00 91 1024.0
20220811191840 31 0 0.0 0.0 0.00 0.00 0.00 91 1024.0
20220811191339 31 0 0.0 0.0 0.00 0.00 0.00 91 1024.1
20220811190839 31 0 0.0 0.0 0.00 0.00 0.00 91 1023.9
20220811190340 31 0 0.0 0.0 0.00 0.00 0.00 91 1023.9
20220811185839 31 0 0.0 0.0 0.00 0.00 0.00 91 1024.0
20220811185339 32 0 0.0 0.0 0.00 0.00 0.00 91 1024.0
20220811184819 32 0 0.0 0.0 0.00 0.00 0.00 91 1023.8
20220811184257 32 0 0.0 0.0 0.00 0.00 0.00 91 1023.7
20220811183818 32 0 0.0 0.0 0.00 0.00 0.00 91 1023.8
20220811183318 32 0 0.0 0.0 0.00 0.00 0.00 91 1023.8
20220811182757 32 0 0.0 0.0 0.00 0.00 0.00 90 1023.6
20220811182318 32 0 0.0 0.0 0.00 0.00 0.00 91 1023.6
20220811181818 32 0 0.0 0.0 0.00 0.00 0.00 91 1023.6
20220811181318 32 0 0.0 0.0 0.00 0.00 0.00 91 1023.4
20220811180758 32 0 0.0 0.0 0.00 0.00 0.00 91 1023.4
20220811180318 32 0 0.0 0.0 0.00 0.00 0.00 91 1023.4
20220811175819 33 0 0.0 0.0 0.00 0.00 0.00 91 1023.3
20220811175339 33 0 0.0 0.0 0.00 0.00 0.00 91 1023.3
20220811174818 33 0 0.0 0.0 0.00 0.00 0.00 91 1023.4
20220811174257 33 0 0.0 0.0 0.00 0.00 0.00 91 1023.3
20220811173818 33 0 0.0 0.0 0.00 0.00 0.00 91 1023.2
20220811173318 33 0 0.0 0.0 0.00 0.00 0.00 90 1023.4
20220811172840 34 0 0.0 0.0 0.00 0.00 0.00 90 1023.3
20220811172340 34 0 0.0 0.0 0.00 0.00 0.00 90 1023.4
20220811171839 34 0 0.0 0.0 0.00 0.00 0.00 90 1023.4
20220811171318 34 0 0.0 0.0 0.00 0.00 0.00 90 1023.3
20220811170757 34 22 0.0 0.9 0.00 0.00 0.00 90 1023.0
20220811170318 34 22 0.0 0.9 0.00 0.00 0.00 90 1023.0
20220811165818 34 0 0.0 0.0 0.00 0.00 0.00 90 1023.0
20220811165318 34 0 0.0 0.0 0.00 0.00 0.00 90 1023.0
20220811164839 34 0 0.0 0.0 0.00 0.00 0.00 90 1022.9
20220811164318 34 0 0.0 0.0 0.00 0.00 0.00 90 1023.0
20220811163757 34 0 0.0 0.0 0.00 0.00 0.00 90 1022.8
20220811163257 34 0 0.0 0.0 0.00 0.00 0.00 90 1022.8
20220811162839 34 0 0.0 0.0 0.00 0.00 0.00 90 1022.7
20220811162318 34 0 0.0 0.0 0.00 0.00 0.00 90 1022.8
20220811161818 34 0 0.0 0.0 0.00 0.00 0.00 90 1022.7
20220811161339 34 0 0.0 0.0 0.00 0.00 0.00 90 1022.6
20220811160757 34 0 0.0 0.0 0.00 0.00 0.00 90 1022.9
20220811160318 34 0 0.0 0.0 0.00 0.00 0.00 90 1022.8
20220811155757 34 0 0.0 0.0 0.00 0.00 0.00 90 1022.7
20220811155318 34 0 0.0 0.0 0.00 0.00 0.00 90 1022.8
20220811154818 34 0 0.0 0.0 0.00 0.00 0.00 90 1022.7
20220811154257 34 0 0.0 0.0 0.00 0.00 0.00 89 1022.7
20220811153757 34 0 0.0 0.0 0.00 0.00 0.00 89 1022.8
20220811153339 34 0 0.0 0.0 0.00 0.00 0.00 89 1022.6
20220811152839 34 22 0.0 1.7 0.00 0.00 0.00 90 1022.7
20220811152258 34 7 0.0 1.7 0.00 0.00 0.00 89 1022.7
20220811151757 34 354 0.0 0.9 0.00 0.00 0.00 89 1022.5
20220811151339 34 0 0.0 0.0 0.00 0.00 0.00 89 1022.6
20220811150818 34 0 0.0 0.0 0.00 0.00 0.00 90 1022.5
20220811150257 34 0 0.0 0.0 0.00 0.00 0.00 90 1022.7
20220811145757 34 0 0.0 0.0 0.00 0.00 0.00 90 1022.6
20220811145257 35 0 0.0 0.0 0.00 0.00 0.00 89 1022.6
20220811144757 35 0 0.0 0.0 0.00 0.00 0.00 89 1022.6
20220811144318 35 0 0.0 0.0 0.00 0.00 0.00 89 1022.6
20220811143818 35 0 0.0 0.0 0.00 0.00 0.00 89 1022.7
20220811143339 35 0 0.0 0.0 0.00 0.00 0.00 89 1022.8
20220811142819 35 0 0.0 0.0 0.00 0.00 0.00 89 1022.7
20220811142257 36 0 0.0 0.0 0.00 0.00 0.00 89 1022.9
20220811141757 36 0 0.0 0.0 0.00 0.00 0.00 89 1022.8
20220811141318 36 0 0.0 0.0 0.00 0.00 0.00 89 1022.9
20220811140839 36 0 0.0 0.0 0.00 0.00 0.00 89 1022.9
20220811140318 36 0 0.0 0.0 0.00 0.00 0.00 89 1022.8
20220811135839 36 0 0.0 0.0 0.00 0.00 0.00 89 1022.9
20220811135339 36 0 0.0 0.0 0.00 0.00 0.00 89 1023.1
20220811134819 36 0 0.0 0.0 0.00 0.00 0.00 88 1022.9
20220811134339 36 0 0.0 0.0 0.00 0.00 0.00 88 1023.0
20220811133839 36 0 0.0 0.0 0.00 0.00 0.00 88 1023.0
20220811133318 36 27 0.0 0.9 0.00 0.00 0.00 88 1023.1
20220811132757 36 25 0.0 1.7 0.00 0.00 0.00 88 1023.0
20220811132257 36 22 0.0 1.7 0.00 0.00 0.00 88 1023.0
20220811131818 36 0 0.0 0.0 0.00 0.00 0.00 88 1023.1
20220811131339 36 0 0.0 0.0 0.00 0.00 0.00 88 1023.2
20220811130818 36 67 0.0 0.9 0.00 0.00 0.00 88 1023.1
20220811130339 36 67 0.0 0.9 0.00 0.00 0.00 88 1023.3
20220811125757 36 0 0.0 0.0 0.00 0.00 0.00 88 1023.2
20220811125257 37 67 0.0 0.9 0.00 0.00 0.00 88 1023.2
20220811124818 37 67 0.0 0.9 0.00 0.00 0.00 88 1023.3
20220811124257 37 0 0.0 0.0 0.00 0.00 0.00 88 1023.2
20220811123757 37 0 0.0 0.0 0.00 0.00 0.00 88 1023.2
20220811123339 37 0 0.0 0.0 0.00 0.00 0.00 88 1023.2
20220811122818 37 67 0.0 1.7 0.00 0.00 0.00 88 1023.1
20220811122339 37 67 0.0 1.7 0.00 0.00 0.00 88 1023.0
20220811121818 37 0 0.0 0.0 0.00 0.00 0.00 88 1022.9
20220811121318 37 0 0.0 0.0 0.00 0.00 0.00 88 1023.1
20220811120757 37 0 0.0 0.0 0.00 0.00 0.00 88 1023.0
20220811120257 37 0 0.0 0.0 0.00 0.00 0.00 87 1023.1
20220811115758 37 0 0.0 0.0 0.00 0.00 0.00 87 1022.9
20220811115339 37 0 0.0 0.0 0.00 0.00 0.00 87 1023.0
20220811114757 38 54 0.0 2.6 0.00 0.00 0.00 87 1023.0
20220811114318 38 54 0.0 2.6 0.00 0.00 0.00 87 1022.9
20220811113818 37 0 0.0 0.0 0.00 0.00 0.00 87 1022.9
20220811113318 37 45 0.0 1.7 0.00 0.00 0.00 87 1022.9
20220811112818 37 47 0.0 1.7 0.00 0.00 0.00 87 1022.8
20220811112257 36 67 0.0 0.9 0.00 0.00 0.00 86 1022.9
20220811111839 36 0 0.0 0.0 0.00 0.00 0.00 86 1022.8
20220811111339 36 0 0.0 0.0 0.00 0.00 0.00 86 1022.9
20220811110758 36 0 0.0 0.0 0.00 0.00 0.00 86 1022.8
20220811110257 37 0 0.0 0.0 0.00 0.00 0.00 86 1022.8
20220811105757 37 0 0.0 0.0 0.00 0.00 0.00 86 1022.6
20220811105257 37 76 0.0 0.9 0.00 0.00 0.00 86 1022.6
20220811104757 37 76 0.0 0.9 0.00 0.00 0.00 86 1022.6
20220811104318 37 0 0.0 0.0 0.00 0.00 0.00 86 1022.6
20220811103839 37 0 0.0 0.0 0.00 0.00 0.00 85 1022.7
20220811103318 37 0 0.0 0.0 0.00 0.00 0.00 85 1022.7
20220811102839 38 0 0.0 0.0 0.00 0.00 0.00 85 1022.7
20220811102257 38 0 0.0 0.0 0.00 0.00 0.00 85 1022.7
20220811101839 38 0 0.0 0.0 0.00 0.00 0.00 85 1022.6
20220811101318 38 0 0.0 0.0 0.00 0.00 0.00 85 1022.5
20220811100818 39 0 0.0 0.0 0.00 0.00 0.00 85 1022.5
20220811100257 39 90 0.0 0.9 0.00 0.00 0.00 85 1022.5
20220811095839 39 90 0.0 0.9 0.00 0.00 0.00 85 1022.4
20220811095339 39 90 0.0 0.9 0.00 0.00 0.00 85 1022.3
20220811094818 39 0 0.0 0.0 0.00 0.00 0.00 84 1022.6
20220811094318 40 0 0.0 0.0 0.00 0.00 0.00 84 1022.5
20220811093757 40 0 0.0 0.0 0.00 0.00 0.00 84 1022.5
20220811093318 40 0 0.0 0.0 0.00 0.00 0.00 84 1022.4
20220811092818 40 0 0.0 0.0 0.00 0.00 0.00 84 1022.5
20220811092339 40 93 0.0 0.9 0.00 0.00 0.00 84 1022.4
20220811091757 40 93 0.0 0.9 0.00 0.00 0.00 83 1022.5
20220811091339 40 112 0.0 0.9 0.00 0.00 0.00 83 1022.5
20220811090818 40 112 0.0 0.9 0.00 0.00 0.00 83 1022.5
20220811090318 40 0 0.0 0.0 0.00 0.00 0.00 83 1022.4
20220811085818 41 0 0.0 0.0 0.00 0.00 0.00 83 1022.5
20220811085339 41 0 0.0 0.0 0.00 0.00 0.00 83 1022.4
20220811084818 41 112 0.0 1.7 0.00 0.00 0.00 83 1022.3
20220811084257 41 112 0.0 1.7 0.00 0.00 0.00 83 1022.3
20220811083839 41 112 0.0 1.7 0.00 0.00 0.00 82 1022.2
20220811083257 41 112 0.0 0.9 0.00 0.00 0.00 82 1022.0
20220811082757 42 0 0.0 0.0 0.00 0.00 0.00 82 1022.1
20220811082339 42 135 0.0 1.7 0.00 0.00 0.00 82 1021.9
20220811081839 42 131 0.0 1.7 0.00 0.00 0.00 82 1022.0
20220811081257 42 116 0.0 1.7 0.00 0.00 0.00 81 1022.0
20220811080818 42 123 0.9 2.6 0.00 0.00 0.00 81 1021.9
20220811080339 43 130 0.9 2.6 0.00 0.00 0.00 81 1021.8
20220811075839 43 132 1.7 2.6 0.00 0.00 0.00 81 1021.8
20220811075318 43 128 0.9 2.6 0.00 0.00 0.00 81 1021.8
20220811074839 43 126 0.9 2.6 0.00 0.00 0.00 80 1021.8
20220811074318 43 129 0.9 2.6 0.00 0.00 0.00 80 1021.7
20220811073757 44 128 0.9 2.6 0.00 0.00 0.00 80 1021.5
20220811073318 44 129 0.9 2.6 0.00 0.00 0.00 80 1021.8
20220811072818 44 136 0.9 2.6 0.00 0.00 0.00 80 1021.5
20220811072257 44 138 1.7 3.5 0.00 0.00 0.00 79 1021.5
20220811071818 45 139 1.7 4.3 0.00 0.00 0.00 79 1021.4
20220811071318 45 141 2.6 4.3 0.00 0.00 0.00 79 1021.5
20220811070818 45 143 2.6 5.2 0.00 0.00 0.00 79 1021.2
20220811070257 45 140 2.6 5.2 0.00 0.00 0.00 79 1021.2
20220811065839 45 137 3.5 7.8 0.00 0.00 0.00 79 1021.2
20220811065318 45 137 3.5 7.8 0.00 0.00 0.00 79 1021.2
20220811064839 45 143 2.6 6.1 0.00 0.00 0.00 79 1021.1
20220811064318 45 148 2.6 4.3 0.00 0.00 0.00 78 1021.1
20220811063818 45 142 2.6 4.3 0.00 0.00 0.00 78 1021.2
20220811063318 45 139 2.6 5.2 0.00 0.00 0.00 78 1021.1
20220811062818 45 138 2.6 5.2 0.00 0.00 0.00 78 1021.1
20220811062339 45 135 2.6 5.2 0.00 0.00 0.00 78 1021.1
20220811061818 45 126 2.6 5.2 0.00 0.00 0.00 78 1020.9
20220811061257 45 120 1.7 5.2 0.00 0.00 0.00 77 1020.8
20220811060839 45 120 1.7 5.2 0.00 0.00 0.00 77 1020.8
20220811060339 45 117 1.7 4.3 0.00 0.00 0.00 77 1020.5
20220811055839 45 114 1.7 7.0 0.00 0.00 0.00 77 1020.6
20220811055318 45 111 2.6 7.0 0.00 0.00 0.00 77 1020.5
20220811054839 45 118 1.7 6.1 0.00 0.00 0.00 77 1020.5
20220811054257 46 125 1.7 5.2 0.00 0.00 0.00 76 1020.4
20220811053839 46 123 1.7 6.1 0.00 0.00 0.00 76 1020.4
20220811053339 46 118 1.7 6.1 0.00 0.00 0.00 76 1020.1
20220811052757 47 112 2.6 5.2 0.00 0.00 0.00 76 1020.2
20220811052257 47 120 3.5 7.8 0.00 0.00 0.00 75 1020.2
20220811051757 47 120 4.3 10.4 0.00 0.00 0.00 75 1020.1
20220811051257 47 115 4.3 10.4 0.00 0.00 0.00 75 1020.0
20220811050757 48 112 2.6 6.1 0.00 0.00 0.00 74 1020.0
20220811050339 48 116 3.5 6.1 0.00 0.00 0.00 74 1020.0
20220811045757 48 131 3.5 7.8 0.00 0.00 0.00 74 1019.8
20220811045257 48 139 4.3 7.8 0.00 0.00 0.00 74 1020.1
20220811044839 48 142 4.3 7.8 0.00 0.00 0.00 74 1020.0
20220811044318 48 143 4.3 7.8 0.00 0.00 0.00 74 1019.9
20220811043818 48 142 4.3 8.7 0.00 0.00 0.00 74 1019.8
20220811043318 48 146 5.2 11.3 0.00 0.00 0.00 74 1019.8
20220811042757 48 139 6.1 11.3 0.00 0.00 0.00 74 1019.7
20220811042257 48 135 5.2 10.4 0.00 0.00 0.00 75 1019.7
20220811041839 48 139 5.2 10.4 0.00 0.00 0.00 75 1019.8
20220811041339 48 144 5.2 8.7 0.00 0.00 0.00 75 1019.6
20220811040757 48 143 4.3 8.7 0.00 0.00 0.00 75 1019.8
20220811040318 47 143 5.2 8.7 0.00 0.00 0.00 75 1019.8
20220811035839 47 139 5.2 9.6 0.00 0.00 0.00 74 1019.8
20220811035318 48 134 5.2 9.6 0.00 0.00 0.00 74 1019.9
20220811034839 48 143 5.2 11.3 0.00 0.00 0.00 73 1019.8
20220811034318 49 136 5.2 11.3 0.00 0.00 0.00 73 1019.8
20220811033757 49 130 5.2 11.3 0.00 0.00 0.00 73 1019.8
20220811033257 49 119 4.3 11.3 0.00 0.00 0.00 73 1019.8
20220811032839 49 103 5.2 11.3 0.00 0.00 0.00 73 1019.7
20220811032257 49 112 5.2 11.3 0.00 0.00 0.00 72 1019.6
20220811031818 49 114 4.3 11.3 0.00 0.00 0.00 72 1019.6
20220811031339 49 114 4.3 7.8 0.00 0.00 0.00 73 1019.5
20220811030757 49 121 3.5 7.8 0.00 0.00 0.00 72 1019.6
20220811030318 49 114 4.3 10.4 0.00 0.00 0.00 72 1019.7
20220811025757 50 117 5.2 10.4 0.00 0.00 0.00 71 1019.6
20220811025339 50 120 5.2 10.4 0.00 0.00 0.00 72 1019.6
20220811024839 49 130 4.3 13.0 0.00 0.00 0.00 73 1019.7
20220811024257 49 145 5.2 13.0 0.00 0.00 0.00 73 1019.7
20220811023839 49 142 5.2 10.4 0.00 0.00 0.00 73 1019.7
20220811023318 49 137 5.2 10.4 0.00 0.00 0.00 73 1019.7
20220811022818 49 147 6.1 10.4 0.00 0.00 0.00 73 1019.8
20220811022318 49 147 6.1 10.4 0.00 0.00 0.00 73 1019.8
20220811021839 49 136 6.1 11.3 0.00 0.00 0.00 73 1019.8
20220811021318 48 133 7.0 12.2 0.00 0.00 0.00 73 1019.8
20220811020818 49 140 6.1 12.2 0.00 0.00 0.00 72 1019.8
20220811020318 49 140 6.1 11.3 0.00 0.00 0.00 71 1019.7
20220811015818 49 135 6.1 12.2 0.00 0.00 0.00 71 1019.8
20220811015318 49 130 6.1 12.2 0.00 0.00 0.00 71 1019.8
20220811014839 50 117 5.2 11.3 0.00 0.00 0.00 72 1019.8
20220811014257 49 126 5.2 10.4 0.00 0.00 0.00 73 1019.7
20220811013819 49 132 5.2 9.6 0.00 0.00 0.00 73 1019.8
20220811013339 49 132 5.2 9.6 0.00 0.00 0.00 74 1020.1
20220811012818 48 131 4.3 11.3 0.00 0.00 0.00 74 1020.0
20220811012318 48 125 5.2 11.3 0.00 0.00 0.00 74 1020.1
20220811011818 48 130 5.2 10.4 0.00 0.00 0.00 74 1020.2
20220811011339 48 140 4.3 7.8 0.00 0.00 0.00 73 1020.2
20220811010818 49 136 3.5 6.1 0.00 0.00 0.00 73 1020.3
20220811010318 49 130 3.5 7.0 0.00 0.00 0.00 73 1020.4
20220811005757 48 119 3.5 7.0 0.00 0.00 0.00 73 1020.4
20220811005318 48 123 3.5 8.7 0.00 0.00 0.00 73 1020.4
20220811004818 48 135 4.3 8.7 0.00 0.00 0.00 72 1020.5
20220811004257 48 131 4.3 9.6 0.00 0.00 0.00 72 1020.5
20220811003818 48 126 4.3 9.6 0.00 0.00 0.00 72 1020.5
20220811003318 48 123 4.3 8.7 0.00 0.00 0.00 72 1020.7
20220811002839 48 112 4.3 8.7 0.00 0.00 0.00 72 1020.6
20220811002318 48 117 4.3 8.7 0.00 0.00 0.00 73 1020.6
20220811001818 48 131 4.3 8.7 0.00 0.00 0.00 73 1020.8
20220811001257 48 133 3.5 8.7 0.00 0.00 0.00 73 1020.8
20220811000839 48 134 4.3 10.4 0.00 0.00 0.00 73 1021.0
20220811000339 47 137 4.3 10.4 0.00 0.00 0.00 73 1021.1
20220810235818 47 140 4.3 7.8 0.00 0.00 0.00 73 1021.1
20220810235318 47 143 4.3 7.8 0.00 0.00 0.00 73 1021.1